Whitestown, Indiana
Current Conditions -  °F | °C
As of 11:55 AM on Sunday 23 Nov 2014 (Local Time) from KTYQ Reporting Station
Overcast Overcast  
Wind Chill: 55°   Ceiling: 5000
Heat Index: 55°   Visibility: 10mi
Dew Point: 44°   Wind: 15mph
Humidity: 65%   Direction: 170°S
Pressure: 29.77"   Gusts: 24mph
Location:  40°N, 86.35°W
Report Text: KTYQ 231655Z AUTO 17013G21KT 10SM BKN050 OVC060 13/07 A2977 RMK AO2 T01300065
Loading
Personal Weather Stations






























Interactive Weather Map New forecast layout! Learn more

10-Day Weather Forecast

Advertisements
Track Severe Weather on mobile